Time;durP1;ratioP1;P1;durP2;ratioP2;P2;SDS_P1;SDS_P2;PMS_P1;PMS_P2;Temp;Humidity;BMP_temperature;BMP_pressure;BME280_temperature;BME280_humidity;BME280_pressure;Samples;Min_cycle;Max_cycle;Signal;HPM_P1;HPM_P2
2023/06/08 00:01:53;;;;;;;13.50;2.90;;;;;;;18.49;58.81;101080.77;105843;1254;73875;-42
2023/06/08 00:04:22;;;;;;;5.60;2.60;;;;;;;18.52;58.81;101085.02;105822;1253;63939;-44
2023/06/08 00:06:52;;;;;;;10.50;2.80;;;;;;;18.49;58.80;101086.86;105838;1257;72591;-43
2023/06/08 00:09:20;;;;;;;6.70;2.80;;;;;;;18.46;58.86;101096.77;105916;1256;60555;-44
2023/06/08 00:11:48;;;;;;;9.60;2.90;;;;;;;18.41;59.03;101107.29;105939;1257;60428;-42
2023/06/08 00:14:19;;;;;;;8.50;3.20;;;;;;;18.36;59.45;101124.63;105879;1253;73960;-44
2023/06/08 00:16:48;;;;;;;13.60;3.00;;;;;;;18.30;59.79;101134.11;105844;1254;65371;-44
2023/06/08 00:19:16;;;;;;;6.90;2.70;;;;;;;18.24;60.32;101139.77;105820;1254;71683;-44
2023/06/08 00:21:44;;;;;;;10.40;3.20;;;;;;;18.19;60.51;101139.98;105831;1253;60529;-42
2023/06/08 00:24:12;;;;;;;18.10;3.40;;;;;;;18.15;61.36;101149.75;105859;1254;60460;-43
2023/06/08 00:26:40;;;;;;;14.70;2.80;;;;;;;18.08;62.27;101153.48;105878;1254;72536;-44
2023/06/08 00:29:08;;;;;;;5.20;2.60;;;;;;;18.02;63.05;101151.45;105798;1257;63851;-43
2023/06/08 00:31:37;;;;;;;10.50;3.10;;;;;;;17.93;65.72;101164.66;105781;1254;70554;-43
2023/06/08 00:34:06;;;;;;;11.00;2.80;;;;;;;17.83;67.29;101151.08;105817;1257;60614;-44
2023/06/08 00:36:33;;;;;;;5.70;2.90;;;;;;;17.73;68.68;101148.14;105824;1257;60428;-44
2023/06/08 00:39:01;;;;;;;5.70;2.70;;;;;;;17.64;74.04;101153.55;105789;1256;73850;-42
2023/06/08 00:41:29;;;;;;;10.70;2.80;;;;;;;17.54;81.46;101148.33;105814;1253;64278;-43
2023/06/08 00:43:57;;;;;;;6.40;2.70;;;;;;;17.44;87.18;101139.61;105820;1254;71413;-44
2023/06/08 00:46:26;;;;;;;7.40;3.00;;;;;;;17.35;96.41;101135.92;105848;1253;60440;-43
2023/06/08 00:48:57;;;;;;;6.50;3.00;;;;;;;17.25;100.00;101122.69;105733;1254;60447;-44
2023/06/08 00:51:28;;;;;;;8.50;2.70;;;;;;;17.16;100.00;101118.61;105868;1252;72629;-43
2023/06/08 00:53:56;;;;;;;11.20;2.80;;;;;;;17.07;100.00;101099.77;105866;1257;64367;-44
2023/06/08 00:56:26;;;;;;;12.30;2.90;;;;;;;16.97;100.00;101091.73;105863;1251;72553;-42
2023/06/08 00:59:00;;;;;;;10.80;3.20;;;;;;;16.87;100.00;101091.71;105747;1257;60494;-44
2023/06/08 01:01:35;;;;;;;12.10;3.30;;;;;;;16.79;100.00;101089.89;105826;1257;60325;-44
2023/06/08 01:04:07;;;;;;;7.70;2.90;;;;;;;16.71;100.00;101084.58;105819;1257;73758;-46
2023/06/08 01:06:45;;;;;;;9.20;3.00;;;;;;;16.64;100.00;101082.02;105517;1251;65288;-45
2023/06/08 01:09:15;;;;;;;7.70;3.00;;;;;;;16.62;100.00;101071.48;105737;1259;72620;-44
2023/06/08 01:11:50;;;;;;;12.40;3.40;;;;;;;16.64;100.00;101014.58;105698;1254;60421;-44
2023/06/08 01:15:02;;;;;;;6.20;3.00;;;;;;;16.64;100.00;100955.70;105823;1257;60418;-43
2023/06/08 01:17:35;;;;;;;3.70;3.00;;;;;;;16.62;100.00;100909.27;105771;1251;72661;-44
2023/06/08 01:20:18;;;;;;;10.30;3.20;;;;;;;16.60;100.00;100873.81;105706;1251;63910;-44
2023/06/08 01:23:07;;;;;;;3.90;2.40;;;;;;;16.59;100.00;100848.05;105834;1251;72623;-44
2023/06/08 01:25:38;;;;;;;7.00;3.10;;;;;;;16.57;100.00;100858.58;105815;1253;60412;-45
2023/06/08 01:28:12;;;;;;;10.20;3.30;;;;;;;16.55;100.00;100879.57;105755;1259;60344;-42
2023/06/08 01:30:42;;;;;;;4.90;2.80;;;;;;;16.56;100.00;100894.88;105842;1251;73819;-44
2023/06/08 01:33:21;;;;;;;10.70;3.40;;;;;;;16.57;100.00;100905.61;105948;1257;65833;-43
2023/06/08 01:36:00;;;;;;;10.30;3.10;;;;;;;16.57;100.00;100901.79;105934;1251;72598;-43
2023/06/08 01:38:35;;;;;;;12.50;3.60;;;;;;;16.53;100.00;100906.95;105702;1251;60427;-43
2023/06/08 01:41:06;;;;;;;6.00;3.40;;;;;;;16.49;100.00;100915.13;105893;1257;60335;-42
2023/06/08 01:43:33;;;;;;;8.10;3.30;;;;;;;16.48;100.00;100867.44;105705;1251;73821;-42
2023/06/08 01:46:01;;;;;;;7.40;3.00;;;;;;;16.48;100.00;100821.62;105902;1256;65176;-44
2023/06/08 01:48:29;;;;;;;8.20;2.90;;;;;;;16.47;100.00;100815.05;105893;1254;72719;-44
2023/06/08 02:08:50;;;;;;;7.00;3.60;;;;;;;16.30;100.00;100730.86;102819;1289;599638;-44
2023/06/08 02:11:18;;;;;;;5.10;2.70;;;;;;;16.26;100.00;100732.92;105237;1268;60101;-44
2023/06/08 02:13:46;;;;;;;10.90;3.20;;;;;;;16.26;100.00;100731.18;104881;1271;59312;-44
2023/06/08 02:16:13;;;;;;;5.00;2.50;;;;;;;16.26;100.00;100735.56;104806;1271;72234;-44
2023/06/08 02:18:41;;;;;;;11.50;3.20;;;;;;;16.26;100.00;100744.77;105038;1264;63916;-43
2023/06/08 02:21:10;;;;;;;10.00;2.70;;;;;;;16.27;100.00;100739.89;104957;1263;72673;-43
2023/06/08 02:23:38;;;;;;;9.00;3.20;;;;;;;16.27;100.00;100756.58;105030;1268;227257;-45
2023/06/08 02:26:07;;;;;;;7.70;3.20;;;;;;;16.29;100.00;100769.58;105055;1266;59365;-43
2023/06/08 02:28:34;;;;;;;4.60;3.20;;;;;;;16.31;100.00;100775.78;105252;1263;71002;-43
2023/06/08 02:31:05;;;;;;;11.20;3.20;;;;;;;16.34;100.00;100774.95;105196;1268;64176;-43
2023/06/08 02:33:34;;;;;;;7.20;3.10;;;;;;;16.37;100.00;100778.33;105174;1267;71728;-44
2023/06/08 02:36:02;;;;;;;9.70;3.00;;;;;;;16.39;100.00;100802.10;105233;1263;59996;-44
2023/06/08 02:38:30;;;;;;;5.80;2.90;;;;;;;16.42;100.00;100823.41;105253;1267;59643;-44
2023/06/08 02:40:58;;;;;;;4.60;3.20;;;;;;;16.46;100.00;100831.80;105219;1263;71825;-44
2023/06/08 02:43:26;;;;;;;4.90;3.20;;;;;;;16.48;100.00;100846.90;104996;1268;64008;-44
2023/06/08 02:45:53;;;;;;;4.60;3.10;;;;;;;16.53;100.00;100854.03;105217;1269;72663;-43
2023/06/08 02:48:22;;;;;;;13.90;3.40;;;;;;;16.57;100.00;100850.59;105195;1263;59627;-44
2023/06/08 02:50:51;;;;;;;12.90;2.90;;;;;;;16.59;100.00;100853.62;105231;1263;59536;-43
2023/06/08 02:53:19;;;;;;;4.30;2.80;;;;;;;16.63;100.00;100864.79;105769;1259;71217;-43
2023/06/08 02:55:50;;;;;;;8.90;3.00;;;;;;;16.68;100.00;100853.82;105735;1259;64053;-44
2023/06/08 02:58:23;;;;;;;10.70;2.70;;;;;;;16.71;100.00;100845.85;105647;1257;71423;-44
2023/06/08 03:00:53;;;;;;;10.90;2.90;;;;;;;16.76;100.00;100863.25;105682;1254;59703;-43
2023/06/08 03:03:51;;;;;;;7.10;2.90;;;;;;;16.84;100.00;100850.77;105707;1259;59619;-44
2023/06/08 03:06:20;;;;;;;4.40;3.00;;;;;;;16.89;100.00;100865.23;105674;1259;71491;-43
2023/06/08 03:08:54;;;;;;;4.20;2.80;;;;;;;16.96;100.00;100923.20;105706;1259;65321;-44
2023/06/08 03:11:23;;;;;;;5.40;2.70;;;;;;;17.05;100.00;100968.38;105653;1257;71592;-44
2023/06/08 03:13:51;;;;;;;9.10;3.10;;;;;;;17.17;100.00;100984.17;105676;1257;59605;-44
2023/06/08 03:16:20;;;;;;;7.90;2.70;;;;;;;17.28;100.00;100985.31;105727;1259;59657;-42
2023/06/08 03:18:48;;;;;;;4.70;2.60;;;;;;;17.38;100.00;100968.36;105753;1259;72127;-47
2023/06/08 03:21:18;;;;;;;6.40;3.10;;;;;;;17.47;100.00;100977.44;105717;1262;64001;-46
2023/06/08 03:23:48;;;;;;;7.70;3.20;;;;;;;17.57;100.00;101009.83;105957;1254;71718;-49
2023/06/08 03:26:17;;;;;;;7.80;2.90;;;;;;;17.69;100.00;101026.83;105902;1251;59688;-44
2023/06/08 03:28:45;;;;;;;4.90;2.80;;;;;;;17.81;100.00;101042.80;105882;1251;60745;-50
2023/06/08 03:31:14;;;;;;;6.60;3.10;;;;;;;17.92;100.00;101056.85;105922;1260;71822;-46
2023/06/08 03:33:45;;;;;;;6.90;3.10;;;;;;;18.02;100.00;101064.14;105695;1251;65391;-43
2023/06/08 03:36:13;;;;;;;12.40;3.00;;;;;;;18.11;100.00;101058.55;105858;1255;71787;-43
2023/06/08 03:38:43;;;;;;;8.10;3.10;;;;;;;18.21;100.00;101041.39;105839;1255;61693;-44
2023/06/08 03:41:13;;;;;;;12.10;3.10;;;;;;;18.27;100.00;101005.48;105660;1257;59531;-45
2023/06/08 03:43:41;;;;;;;6.00;3.00;;;;;;;18.33;100.00;100975.37;105918;1252;73117;-43
2023/06/08 03:46:09;;;;;;;7.10;3.50;;;;;;;18.38;100.00;100940.56;105882;1251;64500;-45
2023/06/08 03:48:37;;;;;;;9.60;3.40;;;;;;;18.47;100.00;100902.42;105867;1254;72710;-43
2023/06/08 03:51:05;;;;;;;8.50;3.20;;;;;;;18.56;100.00;100866.24;105861;1257;60310;-42
2023/06/08 03:53:34;;;;;;;6.10;2.70;;;;;;;18.64;100.00;100849.06;105736;1257;59570;-42
2023/06/08 03:56:02;;;;;;;9.00;3.10;;;;;;;18.75;100.00;100835.15;105854;1257;73040;-42
2023/06/08 03:58:32;;;;;;;3.90;3.00;;;;;;;18.84;100.00;100830.50;105794;1259;64382;-41
2023/06/08 04:01:00;;;;;;;8.70;3.10;;;;;;;18.94;100.00;100819.58;105870;1254;71434;-42
2023/06/08 04:03:29;;;;;;;9.40;3.20;;;;;;;19.02;100.00;100804.72;105891;1257;60478;-42
2023/06/08 04:05:57;;;;;;;7.80;3.30;;;;;;;19.09;100.00;100800.86;105879;1251;60070;-42
2023/06/08 04:08:26;;;;;;;9.80;3.10;;;;;;;19.16;100.00;100811.90;105683;1251;71800;-43
2023/06/08 04:10:54;;;;;;;12.60;2.90;;;;;;;19.25;100.00;100823.34;105894;1252;64391;-44
2023/06/08 04:13:22;;;;;;;8.40;3.10;;;;;;;19.32;100.00;100850.65;105916;1258;71460;-43
2023/06/08 04:15:50;;;;;;;9.50;3.30;;;;;;;19.37;100.00;100873.02;105691;1259;60121;-42
2023/06/08 04:18:18;;;;;;;8.90;2.70;;;;;;;19.40;100.00;100862.48;105843;1259;60003;-43
2023/06/08 04:20:46;;;;;;;7.20;3.20;;;;;;;19.46;100.00;100866.42;105870;1251;73034;-43
2023/06/08 04:23:15;;;;;;;4.50;3.00;;;;;;;19.52;100.00;100890.11;105858;1257;63038;-43
2023/06/08 04:25:43;;;;;;;5.60;2.90;;;;;;;19.63;100.00;100906.17;105886;1257;71418;-43
2023/06/08 04:28:12;;;;;;;6.40;3.10;;;;;;;19.77;100.00;100895.36;105849;1257;60556;-44
2023/06/08 05:08:08;;;;;;;11.70;3.10;;;;;;;21.63;100.00;101012.95;102665;1294;600300;-42
2023/06/08 05:11:49;;;;;;;8.60;3.10;;;;;;;22.14;100.00;101054.90;102746;1292;600940;-43
2023/06/08 05:14:17;;;;;;;8.70;2.70;;;;;;;22.40;100.00;101078.18;104797;1267;59309;-44
2023/06/08 05:16:44;;;;;;;5.70;3.10;;;;;;;22.65;80.97;101061.81;105693;1254;59986;-45
2023/06/08 05:19:13;;;;;;;7.60;3.30;;;;;;;22.77;70.73;101082.84;105657;1254;70946;-45
2023/06/08 05:21:42;;;;;;;8.40;2.80;;;;;;;22.99;67.87;101088.23;105632;1254;64487;-43
2023/06/08 05:24:10;;;;;;;6.90;2.90;;;;;;;23.21;65.95;101093.27;105715;1259;71414;-42
2023/06/08 05:26:39;;;;;;;12.20;3.40;;;;;;;23.43;63.22;101071.46;105551;1260;366326;-42
2023/06/08 05:29:07;;;;;;;7.50;3.30;;;;;;;23.53;58.43;100986.52;105849;1251;60050;-42
2023/06/08 05:31:36;;;;;;;13.00;3.00;;;;;;;23.47;58.43;101043.63;105724;1257;72279;-42
2023/06/08 05:34:03;;;;;;;12.80;3.30;;;;;;;23.50;58.54;101072.46;105935;1254;63923;-42
2023/06/08 05:36:32;;;;;;;14.60;3.40;;;;;;;23.59;56.63;101015.92;105851;1256;71604;-43
2023/06/08 05:39:03;;;;;;;10.80;2.80;;;;;;;23.55;54.12;100930.20;105872;1254;59749;-42
2023/06/08 05:41:31;;;;;;;12.80;3.40;;;;;;;23.48;54.78;101009.36;105915;1256;59605;-43
2023/06/08 05:43:59;;;;;;;14.40;3.00;;;;;;;23.52;55.26;101055.63;105912;1257;72184;-43
2023/06/08 05:46:28;;;;;;;13.90;3.00;;;;;;;23.79;56.41;101106.92;105922;1254;64090;-43
2023/06/08 05:48:58;;;;;;;8.30;2.70;;;;;;;24.20;56.13;101074.88;105831;1254;71547;-43
2023/06/08 05:51:25;;;;;;;6.40;2.50;;;;;;;24.65;54.27;100972.04;105897;1254;59637;-44
2023/06/08 05:53:54;;;;;;;5.00;2.60;;;;;;;24.91;52.71;100904.39;105892;1256;59583;-44
2023/06/08 05:56:22;;;;;;;19.70;2.70;;;;;;;25.15;53.70;100996.97;105966;1251;72211;-44
2023/06/08 05:58:49;;;;;;;13.30;3.10;;;;;;;25.41;50.56;100800.52;105822;1253;64034;-44
2023/06/08 06:01:19;;;;;;;28.10;3.60;;;;;;;25.43;50.62;100845.71;105815;1254;71473;-43
2023/06/08 06:03:47;;;;;;;14.10;2.50;;;;;;;25.50;50.71;100882.29;105961;1256;59712;-44
2023/06/08 06:06:16;;;;;;;9.20;2.90;;;;;;;25.68;51.68;100961.94;105791;1254;60753;-44
2023/06/08 06:08:44;;;;;;;7.40;2.80;;;;;;;25.93;50.97;100913.05;105702;1255;71837;-44
2023/06/08 06:11:11;;;;;;;4.10;2.50;;;;;;;26.24;50.01;100841.94;105771;1254;64010;-44
2023/06/08 06:13:39;;;;;;;9.80;2.70;;;;;;;26.53;49.04;100769.02;105795;1254;72641;-44
2023/06/08 06:16:07;;;;;;;6.60;2.90;;;;;;;26.73;48.97;100790.41;105782;1254;59640;-45
2023/06/08 06:18:35;;;;;;;6.20;2.60;;;;;;;26.95;48.54;100757.73;105655;1256;59606;-44
2023/06/08 06:21:03;;;;;;;9.70;2.60;;;;;;;27.16;48.38;100755.05;105706;1257;71612;-43
2023/06/08 06:23:30;;;;;;;6.70;2.50;;;;;;;27.34;48.81;100820.02;105684;1254;64086;-44
2023/06/08 06:26:00;;;;;;;7.70;2.70;;;;;;;27.50;48.12;100762.18;105847;1255;72658;-43
2023/06/08 06:28:27;;;;;;;14.30;2.70;;;;;;;27.65;47.18;100688.94;105644;1254;59815;-44
2023/06/08 06:30:55;;;;;;;6.90;2.20;;;;;;;27.73;46.79;100667.36;105639;1254;59629;-43
2023/06/08 06:33:23;;;;;;;4.40;2.60;;;;;;;27.83;47.65;100776.55;105702;1254;73018;-43
2023/06/08 06:35:51;;;;;;;8.70;2.70;;;;;;;27.98;45.72;100583.00;105721;1254;64436;-43
2023/06/08 06:38:18;;;;;;;8.90;3.30;;;;;;;28.05;45.54;100553.73;105781;1253;71430;-43
2023/06/08 06:40:52;;;;;;;18.70;2.70;;;;;;;28.07;45.03;100518.42;105726;1253;60033;-43
2023/06/08 06:43:24;;;;;;;13.00;2.60;;;;;;;28.06;44.05;100417.05;105833;1257;59964;-44
2023/06/08 06:45:57;;;;;;;9.00;2.80;;;;;;;27.99;44.15;100463.78;105711;1254;71832;-43
2023/06/08 06:48:25;;;;;;;17.20;2.60;;;;;;;27.97;43.50;100373.06;105677;1259;65223;-43
2023/06/08 06:50:52;;;;;;;4.60;2.20;;;;;;;27.94;42.73;100297.86;105670;1254;72636;-44
2023/06/08 06:53:20;;;;;;;8.50;2.70;;;;;;;27.77;43.14;100412.30;105662;1254;60343;-43
2023/06/08 06:55:48;;;;;;;7.10;2.50;;;;;;;27.51;42.35;100277.87;105800;1255;59602;-44
2023/06/08 06:58:16;;;;;;;6.20;2.50;;;;;;;27.41;42.68;100348.52;105714;1254;72329;-44
2023/06/08 07:00:44;;;;;;;7.50;2.50;;;;;;;27.53;41.19;100156.16;105828;1254;64523;-44
2023/06/08 07:03:12;;;;;;;9.90;2.80;;;;;;;27.57;39.69;99958.23;105775;1257;72066;-43
2023/06/08 07:05:39;;;;;;;4.00;2.90;;;;;;;27.60;39.98;99960.42;105762;1257;59666;-44
2023/06/08 07:08:07;;;;;;;6.80;2.30;;;;;;;27.45;40.25;100052.16;105793;1254;59621;-44
2023/06/08 07:10:36;;;;;;;7.70;2.70;;;;;;;27.42;39.15;99893.21;105783;1257;72287;-44
2023/06/08 07:13:03;;;;;;;6.40;2.40;;;;;;;27.55;39.25;99924.03;105823;1254;64129;-44
2023/06/08 07:15:31;;;;;;;5.20;2.60;;;;;;;27.76;38.30;99796.05;105704;1258;72408;-43
2023/06/08 07:17:59;;;;;;;12.80;2.50;;;;;;;27.80;38.72;99836.40;105689;1254;59822;-43
2023/06/08 07:20:26;;;;;;;9.70;2.60;;;;;;;27.83;39.53;99987.21;105690;1254;60036;-44
2023/06/08 07:22:54;;;;;;;5.70;2.60;;;;;;;27.82;39.57;100000.27;105719;1259;73005;-44
2023/06/08 07:25:42;;;;;;;9.10;2.60;;;;;;;27.90;39.69;100077.16;105791;1254;65331;-45
2023/06/08 07:28:30;;;;;;;22.90;2.80;;;;;;;27.88;38.95;99970.98;105671;1254;71698;-46
2023/06/08 07:30:58;;;;;;;6.40;2.30;;;;;;;27.83;38.93;99963.98;105763;1253;59704;-43
2023/06/08 07:33:26;;;;;;;13.10;2.50;;;;;;;27.89;37.91;99809.06;105691;1258;59548;-47
2023/06/08 07:35:54;;;;;;;8.20;2.30;;;;;;;27.98;37.76;99796.22;105695;1254;71767;-46
2023/06/08 07:38:21;;;;;;;8.30;2.40;;;;;;;28.06;37.01;99676.48;105720;1254;65344;-46
2023/06/08 07:40:49;;;;;;;14.00;2.40;;;;;;;28.13;37.50;99747.79;105690;1254;71581;-43
2023/06/08 07:43:16;;;;;;;7.40;2.60;;;;;;;28.26;37.93;99833.13;105695;1253;60175;-43
2023/06/08 07:45:44;;;;;;;14.30;3.00;;;;;;;28.42;37.62;99802.57;105731;1254;59540;-44
2023/06/08 07:48:12;;;;;;;27.00;3.20;;;;;;;28.55;38.61;99910.33;105694;1254;71982;-43
2023/06/08 07:50:39;;;;;;;8.50;2.50;;;;;;;28.67;38.32;99905.92;105704;1254;64066;-43
2023/06/08 07:53:07;;;;;;;8.40;2.70;;;;;;;28.90;37.77;99821.79;105668;1254;71374;-43
2023/06/08 07:55:35;;;;;;;12.00;2.70;;;;;;;29.08;35.79;99533.25;105688;1254;59740;-43
2023/06/08 07:58:02;;;;;;;17.50;2.60;;;;;;;29.34;34.99;99371.73;105699;1258;59599;-43
2023/06/08 08:00:31;;;;;;;8.10;2.70;;;;;;;29.47;34.73;99325.52;105678;1254;71809;-43
2023/06/08 08:02:58;;;;;;;13.70;2.90;;;;;;;29.56;36.55;99580.88;105805;1257;64041;-43
2023/06/08 08:05:26;;;;;;;10.50;2.80;;;;;;;29.81;36.31;99575.22;105671;1259;71413;-44
2023/06/08 08:07:54;;;;;;;5.80;2.30;;;;;;;30.09;34.35;99350.77;105690;1254;59729;-43
2023/06/08 08:10:23;;;;;;;18.90;3.20;;;;;;;30.15;33.36;99125.96;105750;1258;59646;-42
2023/06/08 08:12:53;;;;;;;16.50;3.10;;;;;;;30.08;34.19;99222.54;105677;1254;71757;-43
2023/06/08 08:15:22;;;;;;;10.40;2.70;;;;;;;30.01;34.12;99185.19;105688;1253;64621;-44
2023/06/08 08:17:49;;;;;;;87.80;6.40;;;;;;;30.00;34.90;99360.84;105727;1258;71503;-43
2023/06/08 08:20:17;;;;;;;15.60;3.20;;;;;;;30.00;35.05;99381.84;105647;1254;61154;-44
2023/06/08 08:22:45;;;;;;;14.00;2.90;;;;;;;29.99;35.45;99465.31;105714;1259;59677;-44
2023/06/08 08:25:13;;;;;;;11.10;2.80;;;;;;;30.13;35.06;99428.61;105762;1260;73449;-44
2023/06/08 08:27:41;;;;;;;7.40;2.50;;;;;;;30.34;34.70;99371.80;105730;1254;64379;-44
2023/06/08 08:30:09;;;;;;;12.90;2.60;;;;;;;30.35;34.62;99329.96;105672;1259;71392;-44
2023/06/08 08:32:37;;;;;;;15.70;2.80;;;;;;;30.39;35.20;99410.08;105754;1259;60536;-44
2023/06/08 08:35:05;;;;;;;6.60;2.50;;;;;;;30.44;34.35;99356.40;105671;1254;60102;-44
2023/06/08 08:37:33;;;;;;;6.70;2.80;;;;;;;30.39;34.08;99303.02;105716;1259;72748;-44
2023/06/08 08:40:01;;;;;;;11.90;2.80;;;;;;;30.42;34.24;99292.66;105699;1254;64389;-44
2023/06/08 08:42:30;;;;;;;21.30;2.70;;;;;;;30.59;33.80;99277.54;105775;1257;71387;-44
2023/06/08 08:45:00;;;;;;;10.40;2.70;;;;;;;30.63;33.01;99146.05;105704;1259;59743;-43
2023/06/08 08:47:29;;;;;;;6.60;2.70;;;;;;;30.67;33.73;99223.02;105767;1254;59593;-44
2023/06/08 08:50:04;;;;;;;9.70;2.40;;;;;;;30.70;33.95;99257.18;105631;1254;72236;-43
2023/06/08 08:52:37;;;;;;;17.70;2.60;;;;;;;30.74;34.26;99318.56;105658;1256;64385;-45
2023/06/08 08:55:05;;;;;;;11.80;2.60;;;;;;;30.80;33.33;99220.48;105795;1257;72787;-48
2023/06/08 08:57:41;;;;;;;10.90;3.40;;;;;;;30.84;34.05;99291.80;105719;1259;59711;-43
2023/06/08 09:00:10;;;;;;;15.30;2.50;;;;;;;30.79;33.88;99263.73;105720;1259;59685;-44
2023/06/08 09:02:37;;;;;;;15.50;2.30;;;;;;;30.71;33.12;99205.05;105686;1259;73039;-43
2023/06/08 09:05:06;;;;;;;10.20;2.60;;;;;;;30.60;34.05;99301.95;105697;1254;64430;-43
2023/06/08 09:07:35;;;;;;;6.90;2.60;;;;;;;30.62;34.24;99378.86;105820;1254;72596;-44
2023/06/08 09:10:14;;;;;;;11.90;2.80;;;;;;;30.77;34.15;99347.99;105726;1254;60840;-44
2023/06/08 09:12:46;;;;;;;10.20;2.80;;;;;;;30.88;32.90;99211.88;105785;1257;59519;-44
2023/06/08 09:15:26;;;;;;;14.30;2.50;;;;;;;30.96;33.31;99194.34;105803;1254;71855;-44
2023/06/08 09:17:58;;;;;;;38.70;4.00;;;;;;;31.05;33.02;99169.05;105799;1258;65132;-44
2023/06/08 09:20:33;;;;;;;20.90;3.80;;;;;;;31.08;32.95;99181.73;105695;1254;71473;-44
2023/06/08 09:23:30;;;;;;;9.20;2.70;;;;;;;30.95;31.84;99010.33;105830;1257;60627;-44
2023/06/08 09:25:58;;;;;;;18.00;2.80;;;;;;;30.86;32.17;99025.97;105574;1259;60562;-44
2023/06/08 09:28:26;;;;;;;9.50;2.50;;;;;;;30.93;31.82;98987.02;105662;1259;72159;-44
2023/06/08 09:30:57;;;;;;;23.50;4.20;;;;;;;30.69;30.95;98857.14;105706;1254;63902;-44
2023/06/08 09:33:33;;;;;;;26.50;4.10;;;;;;;30.37;32.35;99021.86;105803;1254;71513;-44
2023/06/08 09:36:01;;;;;;;8.80;2.60;;;;;;;30.47;33.82;99270.04;105707;1253;60428;-45
2023/06/08 09:38:31;;;;;;;12.60;2.80;;;;;;;30.70;32.92;99177.02;105666;1254;60417;-45
2023/06/08 09:41:15;;;;;;;11.80;2.60;;;;;;;30.97;32.63;99129.79;105789;1254;72613;-45
2023/06/08 09:43:44;;;;;;;11.50;2.90;;;;;;;31.19;33.22;99207.36;105777;1259;64024;-45
2023/06/08 09:46:16;;;;;;;7.70;2.40;;;;;;;31.33;32.96;99178.90;105720;1259;72631;-45
2023/06/08 09:48:53;;;;;;;8.80;2.70;;;;;;;31.54;32.64;99128.69;105840;1257;60537;-45
2023/06/08 09:51:22;;;;;;;3.70;2.30;;;;;;;31.64;31.36;98962.52;105742;1256;61108;-45
2023/06/08 09:53:55;;;;;;;5.50;2.30;;;;;;;31.63;31.19;98936.77;105811;1257;72732;-45
2023/06/08 09:56:26;;;;;;;8.40;2.80;;;;;;;31.59;30.80;98845.69;105730;1259;65185;-42
2023/06/08 09:58:59;;;;;;;10.80;2.60;;;;;;;31.61;30.87;98839.30;105792;1254;71383;-45
2023/06/08 10:01:35;;;;;;;8.20;2.50;;;;;;;31.68;31.03;98827.55;105740;1254;60454;-45
2023/06/08 10:04:19;;;;;;;5.60;2.50;;;;;;;31.60;30.62;98806.16;105814;1258;60511;-45
2023/06/08 10:06:51;;;;;;;10.50;2.40;;;;;;;31.38;31.80;98919.21;105786;1253;73833;-44
2023/06/08 10:09:19;;;;;;;5.90;2.30;;;;;;;31.38;31.35;98878.88;105819;1257;65191;-44
2023/06/08 10:11:47;;;;;;;2.80;1.90;;;;;;;31.44;31.04;98877.04;105714;1254;72723;-44
2023/06/08 10:14:16;;;;;;;6.90;2.60;;;;;;;31.48;30.45;98774.05;105803;1254;60543;-43
2023/06/08 10:16:46;;;;;;;11.60;2.70;;;;;;;31.57;30.86;98821.41;105846;1256;60344;-43
2023/06/08 10:19:13;;;;;;;6.70;2.80;;;;;;;31.68;30.37;98767.33;105693;1259;73901;-44
2023/06/08 10:21:41;;;;;;;5.90;2.70;;;;;;;31.73;30.56;98781.48;105692;1259;64020;-44
2023/06/08 10:24:09;;;;;;;9.50;2.80;;;;;;;31.87;30.29;98745.27;105650;1259;72655;-44
2023/06/08 10:26:37;;;;;;;8.50;2.70;;;;;;;31.96;30.40;98732.79;105842;1254;60520;-44
2023/06/08 10:29:08;;;;;;;19.10;2.70;;;;;;;31.99;30.99;98814.06;105733;1256;60482;-44
2023/06/08 11:09:16;;;;;;;10.10;2.90;;;;;;;32.34;29.53;98553.63;102936;1290;599856;-43
2023/06/08 11:11:51;;;;;;;5.20;3.00;;;;;;;32.26;28.55;98469.52;105093;1269;59950;-43
2023/06/08 11:14:20;;;;;;;6.00;3.20;;;;;;;32.12;29.06;98490.74;105169;1263;60030;-44
2023/06/08 11:16:52;;;;;;;9.50;2.90;;;;;;;32.17;29.08;98513.09;104952;1269;72240;-48
2023/06/08 11:19:21;;;;;;;10.90;2.90;;;;;;;32.32;28.08;98386.11;104996;1269;65156;-48
2023/06/08 11:21:51;;;;;;;5.60;2.70;;;;;;;32.21;28.28;98372.67;104933;1261;205936;-49
2023/06/08 11:24:19;;;;;;;4.30;2.80;;;;;;;32.00;28.91;98459.92;105246;1261;60072;-44
2023/06/08 11:26:47;;;;;;;9.80;3.30;;;;;;;31.95;29.75;98549.44;105288;1266;59262;-45
2023/06/08 11:29:30;;;;;;;12.10;4.20;;;;;;;32.02;29.14;98511.95;105178;1261;70970;-45
2023/06/08 11:32:10;;;;;;;6.00;2.90;;;;;;;32.12;30.44;98638.91;105678;1254;63910;-44
2023/06/08 11:34:41;;;;;;;9.30;3.00;;;;;;;32.31;30.48;98732.14;105673;1255;72646;-44
2023/06/08 11:37:09;;;;;;;7.80;2.70;;;;;;;32.50;30.01;98686.04;105716;1255;60130;-44
2023/06/08 11:39:47;;;;;;;7.70;2.90;;;;;;;32.58;29.17;98583.55;105654;1259;59759;-45
2023/06/08 11:42:15;;;;;;;9.40;2.70;;;;;;;32.59;29.25;98557.31;105712;1255;71826;-45
2023/06/08 11:44:43;;;;;;;9.40;3.00;;;;;;;32.57;28.03;98404.91;105684;1254;63958;-45
2023/06/08 11:47:10;;;;;;;7.80;2.90;;;;;;;32.52;28.95;98486.91;105970;1251;71991;-45
2023/06/08 11:49:54;;;;;;;8.00;2.80;;;;;;;32.66;29.42;98565.04;106001;1251;59722;-46
2023/06/08 11:52:22;;;;;;;7.70;2.80;;;;;;;32.88;29.14;98533.96;106061;1256;59525;-45
2023/06/08 11:54:54;;;;;;;9.00;3.40;;;;;;;33.00;29.28;98524.15;105997;1257;72099;-45
2023/06/08 11:57:21;;;;;;;12.20;2.90;;;;;;;33.12;28.37;98436.21;106010;1257;63929;-45
2023/06/08 11:59:49;;;;;;;8.40;3.00;;;;;;;33.22;28.55;98434.49;105969;1255;71495;-45
2023/06/08 12:02:20;;;;;;;10.50;3.10;;;;;;;33.18;28.92;98465.20;105958;1253;59724;-45
2023/06/08 12:04:48;;;;;;;5.10;2.70;;;;;;;33.15;28.56;98418.00;105960;1251;60075;-45
2023/06/08 12:07:16;;;;;;;9.00;2.90;;;;;;;32.87;27.68;98325.16;105971;1257;73042;-45
2023/06/08 12:23:25;;;;;;;8.50;3.00;;;;;;;32.83;29.43;98584.91;103624;1285;612872;-44
2023/06/08 12:25:53;;;;;;;6.50;3.00;;;;;;;32.80;29.57;98601.25;104670;1264;286257;-44
2023/06/08 12:28:24;;;;;;;6.60;3.00;;;;;;;32.79;29.93;98631.05;105090;1268;60127;-44
2023/06/08 12:30:53;;;;;;;5.60;3.00;;;;;;;32.82;28.98;98547.36;105165;1263;71038;-44
2023/06/08 12:33:21;;;;;;;10.20;2.50;;;;;;;32.88;29.02;98516.16;105134;1263;65209;-44
2023/06/08 12:35:50;;;;;;;6.70;2.50;;;;;;;32.97;29.52;98568.30;105308;1265;73112;-44
2023/06/08 12:38:18;;;;;;;11.10;3.10;;;;;;;32.97;29.66;98592.05;105275;1263;59205;-44
2023/06/08 12:40:50;;;;;;;7.50;2.50;;;;;;;32.94;29.62;98603.21;105270;1260;59342;-44
2023/06/08 12:43:19;;;;;;;7.30;2.70;;;;;;;32.99;30.46;98701.52;105268;1265;72173;-44
2023/06/08 12:45:47;;;;;;;8.60;2.70;;;;;;;33.18;29.64;98648.52;105289;1265;63946;-44
2023/06/08 12:48:14;;;;;;;7.20;2.90;;;;;;;33.29;29.75;98636.38;105271;1265;71956;-44
2023/06/08 12:50:42;;;;;;;9.70;3.00;;;;;;;33.41;29.31;98564.98;105218;1261;59676;-44
2023/06/08 12:53:10;;;;;;;7.00;2.00;;;;;;;33.48;28.05;98438.83;105246;1260;60050;-44
2023/06/08 12:55:38;;;;;;;10.90;2.70;;;;;;;33.23;28.93;98470.41;105336;1263;71919;-44
2023/06/08 12:58:08;;;;;;;8.10;2.90;;;;;;;33.30;29.60;98575.57;105193;1267;66347;-44
2023/06/08 13:00:35;;;;;;;7.10;2.50;;;;;;;33.60;30.00;98659.73;105202;1263;72718;-44
2023/06/08 13:03:06;;;;;;;13.90;3.10;;;;;;;34.02;29.12;98550.77;105153;1263;61519;-44
2023/06/08 13:05:34;;;;;;;5.70;2.60;;;;;;;34.29;29.74;98603.22;105222;1260;60583;-44
2023/06/08 13:08:08;;;;;;;6.60;2.50;;;;;;;34.41;28.65;98480.35;105205;1265;72211;-44
2023/06/08 13:10:37;;;;;;;11.10;3.10;;;;;;;34.37;28.42;98448.05;105079;1263;63925;-44
2023/06/08 13:13:06;;;;;;;10.20;2.30;;;;;;;34.45;29.06;98486.45;105037;1263;71524;-47
2023/06/08 13:15:38;;;;;;;7.10;2.30;;;;;;;34.50;27.67;98322.13;104934;1262;59742;-48